Time;durP1;ratioP1;P1;durP2;ratioP2;P2;SDS_P1;SDS_P2;PMS_P1;PMS_P2;Temp;Humidity;BMP_temperature;BMP_pressure;BME280_temperature;BME280_humidity;BME280_pressure;Samples;Min_cycle;Max_cycle;Signal;HPM_P1;HPM_P2
2021/07/21 00:00:54;;;;;;;;;;;;;;;;;;1464021;40;20524;-48
2021/07/21 00:01:54;;;;;;;;;;;;;;;;;;1466267;40;20043;-46
2021/07/21 00:02:56;;;;;;;;;;;;;;;;;;1466641;40;19952;-40
2021/07/21 00:03:56;;;;;;;;;;;;;;;;;;1466653;40;19961;-44
2021/07/21 00:04:56;;;;;;;;;;;;;;;;;;1465942;40;19992;-49
2021/07/21 00:05:56;;;;;;;;;;;;;;;;;;1460025;40;19933;-42
2021/07/21 00:06:57;;;;;;;;;;;;;;;;;;1459471;40;19948;-51
2021/07/21 00:07:57;;;;;;;;;;;;;;;;;;1459671;40;20290;-52
2021/07/21 00:08:57;;;;;;;;;;;;;;;;;;1459284;40;19941;-48
2021/07/21 00:09:58;;;;;;;;;;;;;;;;;;1463713;40;20723;-51
2021/07/21 00:13:36;;;;;;;;;;;;;;;;;;1463277;40;20082;-42
2021/07/21 00:14:38;;;;;;;;;;;;;;;;;;1462901;40;20104;-44
2021/07/21 00:15:40;;;;;;;;;;;;;;;;;;1460441;40;20272;-45
2021/07/21 00:16:43;;;;;;;;;;;;;;;;;;1466938;40;19945;-42
2021/07/21 00:17:45;;;;;;;;;;;;;;;;;;1469430;40;20205;-46
2021/07/21 00:18:52;;;;;;;;;;;;;;;;;;1462094;40;19944;-43
2021/07/21 00:20:07;;;;;;;;;;;;;;;;;;1458302;40;20439;-48
2021/07/21 00:21:08;;;;;;;;;;;;;;;;;;1462166;40;19934;-46
2021/07/21 00:22:09;;;;;;;;;;;;;;;;;;1462678;40;19930;-42
2021/07/21 00:23:10;;;;;;;;;;;;;;;;;;1465805;40;19983;-51
2021/07/21 00:24:10;;;;;;;;;;;;;;;;;;1468838;40;19933;-52
2021/07/21 00:25:14;;;;;;;;;;;;;;;;;;1462999;40;19969;-52
2021/07/21 00:26:14;;;;;;;;;;;;;;;;;;1461039;40;19938;-39
2021/07/21 00:27:14;;;;;;;;;;;;;;;;;;1465956;40;20086;-41
2021/07/21 00:28:15;;;;;;;;;;;;;;;;;;1460795;40;20323;-40
2021/07/21 00:29:16;;;;;;;;;;;;;;;;;;1466489;40;19933;-44
2021/07/21 00:30:17;;;;;;;;;;;;;;;;;;1466382;40;20314;-47
2021/07/21 00:31:17;;;;;;;;;;;;;;;;;;1465541;40;20881;-47
2021/07/21 00:32:18;;;;;;;;;;;;;;;;;;1455255;40;21272;-49
2021/07/21 00:33:18;;;;;;;;;;;;;;;;;;1453794;40;20328;-43
2021/07/21 00:34:18;;;;;;;;;;;;;;;;;;1461894;40;20263;-41
2021/07/21 00:35:19;;;;;;;;;;;;;;;;;;1466327;40;19944;-48
2021/07/21 00:36:19;;;;;;;;;;;;;;;;;;1461993;40;20209;-50
2021/07/21 00:37:20;;;;;;;;;;;;;;;;;;1454815;40;20001;-45
2021/07/21 00:38:20;;;;;;;;;;;;;;;;;;1457698;40;20324;-45
2021/07/21 00:39:22;;;;;;;;;;;;;;;;;;1464092;40;20291;-52
2021/07/21 00:40:22;;;;;;;;;;;;;;;;;;1456002;40;21451;-47
2021/07/21 00:41:23;;;;;;;;;;;;;;;;;;1457993;40;21011;-44
2021/07/21 00:42:23;;;;;;;;;;;;;;;;;;1452300;40;20022;-47
2021/07/21 00:43:26;;;;;;;;;;;;;;;;;;1457789;40;20017;-49
2021/07/21 00:44:26;;;;;;;;;;;;;;;;;;1461388;40;19934;-46
2021/07/21 00:45:26;;;;;;;;;;;;;;;;;;1457602;40;20261;-49
2021/07/21 00:46:27;;;;;;;;;;;;;;;;;;1456309;40;20422;-48
2021/07/21 00:47:27;;;;;;;;;;;;;;;;;;1453220;40;19950;-45
2021/07/21 00:48:27;;;;;;;;;;;;;;;;;;1454045;40;19946;-42
2021/07/21 00:49:28;;;;;;;;;;;;;;;;;;1461953;40;19945;-48
2021/07/21 00:50:28;;;;;;;;;;;;;;;;;;1465879;40;20011;-42
2021/07/21 00:51:28;;;;;;;;;;;;;;;;;;1458794;40;21275;-43
2021/07/21 00:52:29;;;;;;;;;;;;;;;;;;1456552;40;20005;-47
2021/07/21 00:53:29;;;;;;;;;;;;;;;;;;1452613;40;19953;-50
2021/07/21 00:54:33;;;;;;;;;;;;;;;;;;1459126;40;21928;-52
2021/07/21 00:55:33;;;;;;;;;;;;;;;;;;1449870;40;19942;-49
2021/07/21 00:56:35;;;;;;;;;;;;;;;;;;1453479;40;21056;-43
2021/07/21 00:57:36;;;;;;;;;;;;;;;;;;1453659;40;20065;-47
2021/07/21 00:58:36;;;;;;;;;;;;;;;;;;1454276;40;20437;-46
2021/07/21 00:59:37;;;;;;;;;;;;;;;;;;1456517;40;22075;-48
2021/07/21 01:00:37;;;;;;;;;;;;;;;;;;1462893;40;20024;-42
2021/07/21 01:01:37;;;;;;;;;;;;;;;;;;1462771;40;20023;-49
2021/07/21 01:02:38;;;;;;;;;;;;;;;;;;1462227;40;20367;-47
2021/07/21 01:03:38;;;;;;;;;;;;;;;;;;1461513;40;20403;-49
2021/07/21 01:04:39;;;;;;;;;;;;;;;;;;1453738;40;19980;-47
2021/07/21 01:05:42;;;;;;;;;;;;;;;;;;1452259;40;20329;-41
2021/07/21 01:06:43;;;;;;;;;;;;;;;;;;1465988;40;20271;-47
2021/07/21 01:07:44;;;;;;;;;;;;;;;;;;1466075;40;19937;-43
2021/07/21 01:08:45;;;;;;;;;;;;;;;;;;1467704;40;20105;-39
2021/07/21 01:09:45;;;;;;;;;;;;;;;;;;1466200;40;20382;-42
2021/07/21 01:10:50;;;;;;;;;;;;;;;;;;1460337;40;20533;-47
2021/07/21 01:11:58;;;;;;;;;;;;;;;;;;1459322;40;20211;-45
2021/07/21 01:13:04;;;;;;;;;;;;;;;;;;1459167;40;19991;-46
2021/07/21 01:14:10;;;;;;;;;;;;;;;;;;1461660;40;19933;-47
2021/07/21 01:15:11;;;;;;;;;;;;;;;;;;1465676;40;20296;-51
2021/07/21 01:16:14;;;;;;;;;;;;;;;;;;1465425;40;20267;-47
2021/07/21 01:17:18;;;;;;;;;;;;;;;;;;1462922;40;19945;-45
2021/07/21 01:18:32;;;;;;;;;;;;;;;;;;1459943;40;20217;-39
2021/07/21 01:19:32;;;;;;;;;;;;;;;;;;1465599;40;20026;-43
2021/07/21 01:20:35;;;;;;;;;;;;;;;;;;1457485;40;19950;-52
2021/07/21 01:21:54;;;;;;;;;;;;;;;;;;1457840;40;19946;-51
2021/07/21 01:23:02;;;;;;;;;;;;;;;;;;1464587;40;20084;-47
2021/07/21 01:24:12;;;;;;;;;;;;;;;;;;1465961;40;19933;-49
2021/07/21 01:25:15;;;;;;;;;;;;;;;;;;1461311;40;19934;-42
2021/07/21 01:26:22;;;;;;;;;;;;;;;;;;1457220;40;21116;-47
2021/07/21 01:27:39;;;;;;;;;;;;;;;;;;1469609;40;20018;-47
2021/07/21 01:28:41;;;;;;;;;;;;;;;;;;1469692;40;19984;-44
2021/07/21 01:29:43;;;;;;;;;;;;;;;;;;1469396;40;21606;-39
2021/07/21 01:30:44;;;;;;;;;;;;;;;;;;1465573;40;21024;-45
2021/07/21 01:31:45;;;;;;;;;;;;;;;;;;1464625;40;20352;-46
2021/07/21 01:32:49;;;;;;;;;;;;;;;;;;1467049;40;21100;-46
2021/07/21 01:33:49;;;;;;;;;;;;;;;;;;1466445;40;20072;-49
2021/07/21 01:34:51;;;;;;;;;;;;;;;;;;1464336;40;20087;-48
2021/07/21 01:35:52;;;;;;;;;;;;;;;;;;1470158;40;20584;-45
2021/07/21 01:36:54;;;;;;;;;;;;;;;;;;1469309;40;20142;-47
2021/07/21 01:37:57;;;;;;;;;;;;;;;;;;1469437;40;19933;-42
2021/07/21 01:39:03;;;;;;;;;;;;;;;;;;1465562;40;19931;-48
2021/07/21 01:40:05;;;;;;;;;;;;;;;;;;1465922;40;20290;-49
2021/07/21 01:41:26;;;;;;;;;;;;;;;;;;1465562;40;19933;-44
2021/07/21 01:42:27;;;;;;;;;;;;;;;;;;1468078;40;19940;-50
2021/07/21 01:43:29;;;;;;;;;;;;;;;;;;1469754;40;19933;-38
2021/07/21 01:44:33;;;;;;;;;;;;;;;;;;1461719;40;19943;-43
2021/07/21 01:45:34;;;;;;;;;;;;;;;;;;1461830;40;20023;-43
2021/07/21 01:46:34;;;;;;;;;;;;;;;;;;1457473;40;20317;-45
2021/07/21 01:47:35;;;;;;;;;;;;;;;;;;1461615;40;19953;-43
2021/07/21 01:48:39;;;;;;;;;;;;;;;;;;1461660;40;19945;-41
2021/07/21 01:49:40;;;;;;;;;;;;;;;;;;1461703;40;20043;-42
2021/07/21 01:50:41;;;;;;;;;;;;;;;;;;1463222;40;20073;-45
2021/07/21 01:51:43;;;;;;;;;;;;;;;;;;1466746;40;19987;-42
2021/07/21 01:52:48;;;;;;;;;;;;;;;;;;1468211;40;20104;-47
2021/07/21 01:53:49;;;;;;;;;;;;;;;;;;1469884;40;19960;-44
2021/07/21 01:54:50;;;;;;;;;;;;;;;;;;1467253;40;20098;-41
2021/07/21 01:55:50;;;;;;;;;;;;;;;;;;1467891;40;19999;-45
2021/07/21 01:56:51;;;;;;;;;;;;;;;;;;1466448;40;19948;-45
2021/07/21 01:57:52;;;;;;;;;;;;;;;;;;1460281;40;20223;-47
2021/07/21 01:58:53;;;;;;;;;;;;;;;;;;1461743;40;20053;-50
2021/07/21 01:59:54;;;;;;;;;;;;;;;;;;1470153;40;19951;-49
2021/07/21 02:00:54;;;;;;;;;;;;;;;;;;1470327;40;20068;-45
2021/07/21 02:01:55;;;;;;;;;;;;;;;;;;1466537;40;19933;-47
2021/07/21 02:02:56;;;;;;;;;;;;;;;;;;1466841;40;19937;-47
2021/07/21 02:03:58;;;;;;;;;;;;;;;;;;1466227;40;19933;-44
2021/07/21 02:04:59;;;;;;;;;;;;;;;;;;1458406;40;20022;-47
2021/07/21 02:06:01;;;;;;;;;;;;;;;;;;1462249;40;20396;-39
2021/07/21 02:07:02;;;;;;;;;;;;;;;;;;1462269;40;20841;-45
2021/07/21 02:08:03;;;;;;;;;;;;;;;;;;1465405;40;19981;-47
2021/07/21 02:09:05;;;;;;;;;;;;;;;;;;1466205;40;19945;-47
2021/07/21 02:10:06;;;;;;;;;;;;;;;;;;1465287;40;20981;-48
2021/07/21 02:12:18;;;;;;;;;;;;;;;;;;1481540;22;20085;-48
2021/07/21 02:13:19;;;;;;;;;;;;;;;;;;1473021;40;19932;-48
2021/07/21 02:14:21;;;;;;;;;;;;;;;;;;1479432;40;19932;-49
2021/07/21 02:15:23;;;;;;;;;;;;;;;;;;1476708;40;19972;-41
2021/07/21 02:16:24;;;;;;;;;;;;;;;;;;1472634;40;19937;-48
2021/07/21 02:17:25;;;;;;;;;;;;;;;;;;1458567;40;20717;-50
2021/07/21 02:18:26;;;;;;;;;;;;;;;;;;1459236;40;20078;-45
2021/07/21 02:19:31;;;;;;;;;;;;;;;;;;1463516;40;20119;-45
2021/07/21 02:20:32;;;;;;;;;;;;;;;;;;1459306;40;20112;-49
2021/07/21 02:21:32;;;;;;;;;;;;;;;;;;1457456;40;20317;-47
2021/07/21 02:22:33;;;;;;;;;;;;;;;;;;1459949;40;22570;-47
2021/07/21 02:23:34;;;;;;;;;;;;;;;;;;1476109;40;20164;-40
2021/07/21 02:24:35;;;;;;;;;;;;;;;;;;1476991;40;19956;-50
2021/07/21 02:25:36;;;;;;;;;;;;;;;;;;1475928;40;20116;-42
2021/07/21 02:26:37;;;;;;;;;;;;;;;;;;1471376;40;20434;-47
2021/07/21 02:27:39;;;;;;;;;;;;;;;;;;1471474;40;20076;-48
2021/07/21 02:28:39;;;;;;;;;;;;;;;;;;1476119;40;19943;-47
2021/07/21 02:29:41;;;;;;;;;;;;;;;;;;1468023;40;20379;-45
2021/07/21 02:30:50;;;;;;;;;;;;;;;;;;1472336;40;19992;-41
2021/07/21 02:31:59;;;;;;;;;;;;;;;;;;1467299;40;19937;-45
2021/07/21 02:33:21;;;;;;;;;;;;;;;;;;1471996;40;19945;-52
2021/07/21 02:34:22;;;;;;;;;;;;;;;;;;1476755;40;19956;-45
2021/07/21 02:35:24;;;;;;;;;;;;;;;;;;1466779;40;19992;-45
2021/07/21 02:36:24;;;;;;;;;;;;;;;;;;1467607;40;19933;-47
2021/07/21 02:37:25;;;;;;;;;;;;;;;;;;1472051;40;20205;-56
2021/07/21 02:38:26;;;;;;;;;;;;;;;;;;1467657;40;20204;-43
2021/07/21 02:39:27;;;;;;;;;;;;;;;;;;1459111;40;20096;-45
2021/07/21 02:40:27;;;;;;;;;;;;;;;;;;1463541;40;20443;-47
2021/07/21 02:41:28;;;;;;;;;;;;;;;;;;1454202;40;20227;-45
2021/07/21 02:42:28;;;;;;;;;;;;;;;;;;1462959;40;20083;-40
2021/07/21 02:43:29;;;;;;;;;;;;;;;;;;1468247;40;19939;-41
2021/07/21 02:44:29;;;;;;;;;;;;;;;;;;1467191;40;20198;-50
2021/07/21 02:45:30;;;;;;;;;;;;;;;;;;1476560;40;19979;-41
2021/07/21 02:46:30;;;;;;;;;;;;;;;;;;1472722;40;19933;-43
2021/07/21 02:47:32;;;;;;;;;;;;;;;;;;1470983;40;19945;-49
2021/07/21 02:48:32;;;;;;;;;;;;;;;;;;1463315;40;20196;-48
2021/07/21 02:49:33;;;;;;;;;;;;;;;;;;1456277;40;20404;-48
2021/07/21 02:50:33;;;;;;;;;;;;;;;;;;1466754;40;20197;-48
2021/07/21 02:51:49;;;;;;;;;;;;;;;;;;1472757;40;20155;-39
2021/07/21 02:52:59;;;;;;;;;;;;;;;;;;1458531;40;20195;-44
2021/07/21 02:54:07;;;;;;;;;;;;;;;;;;1460679;40;20265;-47
2021/07/21 02:55:18;;;;;;;;;;;;;;;;;;1461926;40;19945;-48
2021/07/21 02:56:20;;;;;;;;;;;;;;;;;;1467967;40;20281;-50
2021/07/21 02:57:24;;;;;;;;;;;;;;;;;;1472267;40;20543;-48
2021/07/21 02:58:37;;;;;;;;;;;;;;;;;;1471258;40;20060;-39
2021/07/21 02:59:40;;;;;;;;;;;;;;;;;;1470138;40;20127;-49
2021/07/21 03:00:41;;;;;;;;;;;;;;;;;;1469077;40;20229;-47
2021/07/21 03:01:47;;;;;;;;;;;;;;;;;;1475995;40;19935;-44
2021/07/21 03:02:48;;;;;;;;;;;;;;;;;;1467028;40;19999;-47
2021/07/21 03:03:49;;;;;;;;;;;;;;;;;;1463091;40;19973;-47
2021/07/21 03:04:51;;;;;;;;;;;;;;;;;;1465128;40;19950;-45
2021/07/21 03:05:54;;;;;;;;;;;;;;;;;;1467362;40;20433;-42
2021/07/21 03:06:55;;;;;;;;;;;;;;;;;;1471553;40;19992;-48
2021/07/21 03:07:57;;;;;;;;;;;;;;;;;;1476554;40;20289;-42
2021/07/21 03:08:58;;;;;;;;;;;;;;;;;;1464540;40;19944;-45
2021/07/21 03:09:59;;;;;;;;;;;;;;;;;;1467525;40;19948;-44
2021/07/21 03:11:01;;;;;;;;;;;;;;;;;;1463086;40;20485;-43
2021/07/21 03:12:02;;;;;;;;;;;;;;;;;;1467533;40;19946;-44
2021/07/21 03:13:05;;;;;;;;;;;;;;;;;;1468331;40;19933;-43
2021/07/21 03:14:06;;;;;;;;;;;;;;;;;;1471621;40;19937;-43
2021/07/21 03:15:07;;;;;;;;;;;;;;;;;;1464954;40;20056;-44
2021/07/21 03:16:08;;;;;;;;;;;;;;;;;;1465401;40;19942;-47
2021/07/21 03:17:13;;;;;;;;;;;;;;;;;;1477802;40;19928;-50
2021/07/21 03:18:15;;;;;;;;;;;;;;;;;;1475942;40;19944;-48
2021/07/21 03:19:17;;;;;;;;;;;;;;;;;;1476682;40;20253;-41
2021/07/21 03:20:18;;;;;;;;;;;;;;;;;;1478626;40;19932;-51
2021/07/21 03:21:18;;;;;;;;;;;;;;;;;;1475646;40;19936;-45
2021/07/21 03:22:24;;;;;;;;;;;;;;;;;;1475695;40;19995;-44
2021/07/21 03:23:25;;;;;;;;;;;;;;;;;;1475398;40;19959;-48
2021/07/21 03:24:26;;;;;;;;;;;;;;;;;;1476611;40;20392;-52
2021/07/21 03:25:27;;;;;;;;;;;;;;;;;;1476595;40;19940;-43
2021/07/21 03:26:29;;;;;;;;;;;;;;;;;;1467265;40;20618;-54
2021/07/21 03:27:31;;;;;;;;;;;;;;;;;;1467511;40;19937;-42
2021/07/21 03:28:32;;;;;;;;;;;;;;;;;;1468884;40;19933;-47
2021/07/21 03:29:33;;;;;;;;;;;;;;;;;;1467459;40;19981;-52
2021/07/21 03:30:35;;;;;;;;;;;;;;;;;;1463364;40;20033;-48
2021/07/21 03:31:36;;;;;;;;;;;;;;;;;;1470001;40;19984;-43
2021/07/21 03:32:38;;;;;;;;;;;;;;;;;;1476682;40;20002;-47
2021/07/21 03:33:39;;;;;;;;;;;;;;;;;;1467536;40;19956;-50
2021/07/21 03:34:39;;;;;;;;;;;;;;;;;;1467025;40;20120;-47
2021/07/21 03:35:40;;;;;;;;;;;;;;;;;;1467574;40;20084;-46
2021/07/21 03:36:43;;;;;;;;;;;;;;;;;;1467453;40;20019;-47
2021/07/21 03:37:45;;;;;;;;;;;;;;;;;;1476761;40;19932;-47
2021/07/21 03:38:46;;;;;;;;;;;;;;;;;;1472573;40;19928;-44
2021/07/21 03:39:58;;;;;;;;;;;;;;;;;;1473860;40;19974;-45
2021/07/21 03:40:58;;;;;;;;;;;;;;;;;;1467483;40;19933;-43
2021/07/21 03:41:59;;;;;;;;;;;;;;;;;;1467349;40;19940;-50
2021/07/21 03:42:59;;;;;;;;;;;;;;;;;;1475876;40;19936;-47
2021/07/21 03:44:02;;;;;;;;;;;;;;;;;;1473202;40;19944;-43
2021/07/21 03:45:05;;;;;;;;;;;;;;;;;;1476811;40;19991;-48
2021/07/21 03:46:05;;;;;;;;;;;;;;;;;;1475422;40;19943;-44
2021/07/21 03:47:05;;;;;;;;;;;;;;;;;;1476690;40;19924;-45
2021/07/21 03:48:06;;;;;;;;;;;;;;;;;;1475653;40;19936;-47
2021/07/21 03:49:08;;;;;;;;;;;;;;;;;;1475367;40;19940;-47
2021/07/21 03:50:09;;;;;;;;;;;;;;;;;;1475508;40;19992;-42
2021/07/21 03:51:11;;;;;;;;;;;;;;;;;;1480972;40;20459;-56
2021/07/21 03:52:12;;;;;;;;;;;;;;;;;;1478642;40;19937;-45
2021/07/21 03:53:12;;;;;;;;;;;;;;;;;;1475594;40;19932;-52
2021/07/21 03:54:13;;;;;;;;;;;;;;;;;;1472753;40;20053;-48
2021/07/21 03:55:15;;;;;;;;;;;;;;;;;;1474629;40;19940;-45
2021/07/21 03:56:15;;;;;;;;;;;;;;;;;;1475561;40;20408;-44
2021/07/21 03:57:19;;;;;;;;;;;;;;;;;;1475306;40;19932;-42
2021/07/21 03:58:20;;;;;;;;;;;;;;;;;;1475394;40;19968;-45
2021/07/21 03:59:20;;;;;;;;;;;;;;;;;;1480561;40;20275;-46
2021/07/21 04:00:22;;;;;;;;;;;;;;;;;;1471697;40;20088;-52
2021/07/21 04:01:23;;;;;;;;;;;;;;;;;;1475439;40;20063;-45
2021/07/21 04:02:24;;;;;;;;;;;;;;;;;;1474389;40;20445;-51
2021/07/21 04:03:27;;;;;;;;;;;;;;;;;;1475087;40;20138;-45
2021/07/21 04:04:28;;;;;;;;;;;;;;;;;;1475387;40;19937;-41
2021/07/21 04:05:30;;;;;;;;;;;;;;;;;;1470032;40;20466;-52
2021/07/21 04:06:34;;;;;;;;;;;;;;;;;;1471037;40;20326;-45
2021/07/21 04:07:37;;;;;;;;;;;;;;;;;;1476431;40;19940;-42
2021/07/21 04:08:38;;;;;;;;;;;;;;;;;;1474799;40;19987;-51
2021/07/21 04:09:40;;;;;;;;;;;;;;;;;;1475168;40;20050;-45
2021/07/21 04:10:40;;;;;;;;;;;;;;;;;;1475641;40;19932;-42
2021/07/21 04:11:41;;;;;;;;;;;;;;;;;;1475426;40;19937;-42
2021/07/21 04:12:44;;;;;;;;;;;;;;;;;;1471234;40;19941;-48
2021/07/21 04:13:45;;;;;;;;;;;;;;;;;;1467402;40;20676;-49
2021/07/21 04:14:47;;;;;;;;;;;;;;;;;;1471065;40;19945;-46
2021/07/21 04:15:50;;;;;;;;;;;;;;;;;;1466808;40;20256;-42
2021/07/21 04:16:51;;;;;;;;;;;;;;;;;;1463387;40;20310;-47
2021/07/21 04:17:52;;;;;;;;;;;;;;;;;;1463120;40;19941;-43
2021/07/21 04:18:53;;;;;;;;;;;;;;;;;;1467785;40;19929;-54
2021/07/21 04:19:53;;;;;;;;;;;;;;;;;;1469733;40;19968;-44
2021/07/21 04:20:54;;;;;;;;;;;;;;;;;;1463188;40;19945;-39
2021/07/21 04:21:55;;;;;;;;;;;;;;;;;;1459055;40;19938;-46
2021/07/21 04:22:56;;;;;;;;;;;;;;;;;;1463489;40;20000;-44
2021/07/21 04:23:57;;;;;;;;;;;;;;;;;;1467115;40;20034;-45
2021/07/21 04:24:58;;;;;;;;;;;;;;;;;;1467560;40;20338;-42
2021/07/21 04:25:59;;;;;;;;;;;;;;;;;;1465907;40;19988;-49
2021/07/21 04:27:03;;;;;;;;;;;;;;;;;;1471377;40;20529;-42
2021/07/21 04:28:04;;;;;;;;;;;;;;;;;;1476842;40;19933;-44
2021/07/21 04:29:04;;;;;;;;;;;;;;;;;;1475968;40;20274;-53
2021/07/21 04:30:05;;;;;;;;;;;;;;;;;;1475611;40;20014;-48
2021/07/21 04:31:06;;;;;;;;;;;;;;;;;;1467347;40;19944;-47
2021/07/21 04:32:07;;;;;;;;;;;;;;;;;;1471329;40;19945;-47
2021/07/21 04:33:07;;;;;;;;;;;;;;;;;;1469182;40;19953;-45
2021/07/21 04:34:08;;;;;;;;;;;;;;;;;;1468896;40;19981;-47
2021/07/21 04:35:12;;;;;;;;;;;;;;;;;;1471263;40;19983;-45
2021/07/21 04:36:12;;;;;;;;;;;;;;;;;;1471282;40;19933;-51
2021/07/21 04:37:13;;;;;;;;;;;;;;;;;;1463016;40;19968;-44
2021/07/21 04:38:14;;;;;;;;;;;;;;;;;;1467425;40;19933;-45
2021/07/21 04:39:18;;;;;;;;;;;;;;;;;;1476465;40;19967;-49
2021/07/21 04:40:18;;;;;;;;;;;;;;;;;;1472362;40;19938;-49
2021/07/21 04:41:21;;;;;;;;;;;;;;;;;;1469059;40;20532;-49
2021/07/21 04:42:26;;;;;;;;;;;;;;;;;;1466923;40;20062;-45
2021/07/21 04:43:26;;;;;;;;;;;;;;;;;;1472109;40;20242;-49
2021/07/21 04:44:27;;;;;;;;;;;;;;;;;;1472112;40;19975;-43
2021/07/21 04:45:27;;;;;;;;;;;;;;;;;;1472181;40;20004;-48
2021/07/21 04:46:30;;;;;;;;;;;;;;;;;;1472145;40;19948;-48
2021/07/21 04:47:31;;;;;;;;;;;;;;;;;;1471993;40;20249;-48
2021/07/21 04:48:31;;;;;;;;;;;;;;;;;;1470579;40;19964;-44
2021/07/21 04:49:32;;;;;;;;;;;;;;;;;;1471115;40;20058;-46
2021/07/21 04:50:33;;;;;;;;;;;;;;;;;;1475525;40;20178;-48
2021/07/21 04:51:34;;;;;;;;;;;;;;;;;;1471187;40;20100;-49
2021/07/21 04:52:35;;;;;;;;;;;;;;;;;;1476373;40;19960;-51
2021/07/21 04:53:35;;;;;;;;;;;;;;;;;;1476094;40;20188;-44
2021/07/21 04:54:36;;;;;;;;;;;;;;;;;;1467712;40;19991;-48
2021/07/21 04:55:37;;;;;;;;;;;;;;;;;;1470815;40;20296;-47
2021/07/21 04:56:38;;;;;;;;;;;;;;;;;;1471112;40;20892;-49
2021/07/21 04:57:38;;;;;;;;;;;;;;;;;;1467057;40;20094;-45
2021/07/21 04:58:38;;;;;;;;;;;;;;;;;;1467399;40;20216;-54
2021/07/21 04:59:38;;;;;;;;;;;;;;;;;;1475464;40;20519;-49
2021/07/21 05:00:39;;;;;;;;;;;;;;;;;;1476154;40;20067;-46
2021/07/21 05:01:39;;;;;;;;;;;;;;;;;;1476447;40;19986;-45
2021/07/21 05:02:40;;;;;;;;;;;;;;;;;;1476065;40;19981;-45
2021/07/21 05:03:40;;;;;;;;;;;;;;;;;;1467099;40;19937;-40
2021/07/21 05:04:40;;;;;;;;;;;;;;;;;;1467243;40;19941;-49
2021/07/21 05:05:41;;;;;;;;;;;;;;;;;;1469840;40;19956;-47
2021/07/21 05:06:41;;;;;;;;;;;;;;;;;;1466657;40;19940;-50
2021/07/21 05:07:42;;;;;;;;;;;;;;;;;;1467232;40;19930;-44
2021/07/21 05:08:42;;;;;;;;;;;;;;;;;;1467120;40;19937;-41
2021/07/21 05:09:43;;;;;;;;;;;;;;;;;;1467244;40;20012;-48
2021/07/21 05:10:46;;;;;;;;;;;;;;;;;;1466908;40;19962;-48
2021/07/21 05:11:46;;;;;;;;;;;;;;;;;;1464346;40;20014;-52
2021/07/21 05:12:47;;;;;;;;;;;;;;;;;;1463944;40;20329;-45
2021/07/21 05:13:47;;;;;;;;;;;;;;;;;;1467215;40;19992;-48
2021/07/21 05:14:47;;;;;;;;;;;;;;;;;;1467120;40;19985;-41
2021/07/21 05:15:48;;;;;;;;;;;;;;;;;;1469856;40;19949;-48
2021/07/21 05:16:48;;;;;;;;;;;;;;;;;;1467081;40;19961;-47
2021/07/21 05:17:49;;;;;;;;;;;;;;;;;;1467306;40;20261;-43
2021/07/21 05:18:49;;;;;;;;;;;;;;;;;;1468720;40;20007;-47
2021/07/21 05:19:49;;;;;;;;;;;;;;;;;;1471546;40;20374;-48
2021/07/21 05:20:50;;;;;;;;;;;;;;;;;;1471031;40;19933;-49
2021/07/21 05:21:52;;;;;;;;;;;;;;;;;;1463534;40;20045;-42
2021/07/21 05:22:53;;;;;;;;;;;;;;;;;;1466959;40;19965;-46
2021/07/21 05:23:54;;;;;;;;;;;;;;;;;;1467228;40;20555;-48
2021/07/21 05:24:54;;;;;;;;;;;;;;;;;;1471094;40;20099;-48
2021/07/21 05:25:55;;;;;;;;;;;;;;;;;;1462729;40;20427;-41
2021/07/21 05:26:56;;;;;;;;;;;;;;;;;;1463267;40;19929;-48
2021/07/21 05:27:56;;;;;;;;;;;;;;;;;;1463575;40;20282;-51
2021/07/21 05:28:57;;;;;;;;;;;;;;;;;;1461575;40;20009;-49
2021/07/21 05:29:58;;;;;;;;;;;;;;;;;;1467851;40;20059;-49
2021/07/21 05:30:58;;;;;;;;;;;;;;;;;;1467958;40;19944;-43
2021/07/21 05:31:58;;;;;;;;;;;;;;;;;;1461818;40;20363;-49
2021/07/21 05:32:59;;;;;;;;;;;;;;;;;;1463694;40;20062;-49
2021/07/21 05:33:59;;;;;;;;;;;;;;;;;;1463669;40;19946;-44
2021/07/21 05:35:00;;;;;;;;;;;;;;;;;;1467137;40;19933;-50
2021/07/21 05:36:02;;;;;;;;;;;;;;;;;;1459132;40;20081;-45
2021/07/21 05:37:04;;;;;;;;;;;;;;;;;;1458509;40;19937;-46
2021/07/21 05:38:04;;;;;;;;;;;;;;;;;;1465375;40;19940;-49
2021/07/21 05:39:07;;;;;;;;;;;;;;;;;;1475662;40;19939;-48
2021/07/21 05:40:08;;;;;;;;;;;;;;;;;;1475883;40;19936;-44
2021/07/21 05:41:10;;;;;;;;;;;;;;;;;;1475885;40;19932;-48
2021/07/21 05:42:10;;;;;;;;;;;;;;;;;;1463179;40;20408;-42
2021/07/21 05:43:11;;;;;;;;;;;;;;;;;;1461958;40;19937;-52
2021/07/21 05:44:12;;;;;;;;;;;;;;;;;;1458402;40;20281;-45
2021/07/21 05:45:12;;;;;;;;;;;;;;;;;;1467943;40;20023;-43
2021/07/21 05:46:13;;;;;;;;;;;;;;;;;;1467577;40;19945;-46
2021/07/21 05:47:13;;;;;;;;;;;;;;;;;;1459633;40;19999;-49
2021/07/21 05:48:13;;;;;;;;;;;;;;;;;;1459503;40;19950;-52
2021/07/21 05:49:14;;;;;;;;;;;;;;;;;;1459807;40;19930;-52
2021/07/21 05:50:14;;;;;;;;;;;;;;;;;;1459421;40;20646;-46
2021/07/21 05:51:14;;;;;;;;;;;;;;;;;;1459689;40;19938;-52
2021/07/21 05:52:16;;;;;;;;;;;;;;;;;;1456579;40;19954;-47
2021/07/21 05:53:16;;;;;;;;;;;;;;;;;;1459188;40;20235;-43
2021/07/21 05:54:16;;;;;;;;;;;;;;;;;;1458945;40;19938;-51
2021/07/21 05:55:17;;;;;;;;;;;;;;;;;;1459209;40;19945;-46
2021/07/21 05:56:17;;;;;;;;;;;;;;;;;;1459485;40;20522;-46
2021/07/21 05:57:17;;;;;;;;;;;;;;;;;;1460664;40;20410;-52
2021/07/21 05:58:18;;;;;;;;;;;;;;;;;;1467527;40;19989;-54
2021/07/21 05:59:18;;;;;;;;;;;;;;;;;;1464727;40;20511;-45
2021/07/21 06:00:18;;;;;;;;;;;;;;;;;;1467228;40;19968;-48
2021/07/21 06:01:19;;;;;;;;;;;;;;;;;;1467713;40;19930;-49
2021/07/21 06:02:19;;;;;;;;;;;;;;;;;;1467773;40;20363;-45
2021/07/21 06:03:21;;;;;;;;;;;;;;;;;;1467583;40;20047;-52
2021/07/21 06:04:22;;;;;;;;;;;;;;;;;;1467656;40;19933;-51
2021/07/21 06:05:22;;;;;;;;;;;;;;;;;;1467974;40;19963;-49
2021/07/21 06:06:23;;;;;;;;;;;;;;;;;;1467740;40;20023;-47
2021/07/21 06:07:23;;;;;;;;;;;;;;;;;;1467785;40;20049;-43
2021/07/21 06:08:24;;;;;;;;;;;;;;;;;;1464823;40;19969;-45
2021/07/21 06:09:24;;;;;;;;;;;;;;;;;;1471822;40;20147;-54
2021/07/21 06:10:24;;;;;;;;;;;;;;;;;;1471954;40;19962;-46
2021/07/21 06:11:25;;;;;;;;;;;;;;;;;;1471675;40;20144;-50
2021/07/21 06:12:25;;;;;;;;;;;;;;;;;;1471821;40;19944;-49
2021/07/21 06:13:25;;;;;;;;;;;;;;;;;;1467667;40;20543;-45
2021/07/21 06:14:26;;;;;;;;;;;;;;;;;;1475266;40;20137;-49
2021/07/21 06:15:28;;;;;;;;;;;;;;;;;;1477066;40;19936;-51
2021/07/21 06:16:29;;;;;;;;;;;;;;;;;;1479554;40;20055;-40
2021/07/21 06:17:30;;;;;;;;;;;;;;;;;;1481028;40;19994;-44
2021/07/21 06:18:30;;;;;;;;;;;;;;;;;;1481039;40;19940;-46
2021/07/21 06:19:33;;;;;;;;;;;;;;;;;;1480973;40;20090;-46
2021/07/21 06:20:34;;;;;;;;;;;;;;;;;;1481235;40;20108;-54
2021/07/21 06:21:34;;;;;;;;;;;;;;;;;;1480926;40;20066;-44
2021/07/21 06:22:38;;;;;;;;;;;;;;;;;;1481246;40;19948;-46
2021/07/21 06:23:39;;;;;;;;;;;;;;;;;;1475639;40;19940;-49
2021/07/21 06:24:39;;;;;;;;;;;;;;;;;;1480483;40;19943;-47
2021/07/21 06:25:39;;;;;;;;;;;;;;;;;;1481027;40;20153;-51
2021/07/21 06:26:40;;;;;;;;;;;;;;;;;;1481231;40;19935;-43
2021/07/21 06:27:40;;;;;;;;;;;;;;;;;;1480946;40;19932;-46
2021/07/21 06:28:40;;;;;;;;;;;;;;;;;;1481054;40;19988;-44
2021/07/21 06:29:41;;;;;;;;;;;;;;;;;;1480935;40;20260;-48
2021/07/21 06:30:41;;;;;;;;;;;;;;;;;;1478140;40;19949;-54
2021/07/21 06:31:41;;;;;;;;;;;;;;;;;;1481180;40;20192;-50
2021/07/21 06:32:42;;;;;;;;;;;;;;;;;;1481217;40;20013;-42
2021/07/21 06:33:43;;;;;;;;;;;;;;;;;;1481058;40;19979;-45
2021/07/21 06:34:43;;;;;;;;;;;;;;;;;;1480944;40;20347;-53
2021/07/21 06:35:46;;;;;;;;;;;;;;;;;;1481046;40;19932;-44
2021/07/21 06:36:47;;;;;;;;;;;;;;;;;;1481159;40;19961;-46
2021/07/21 06:37:47;;;;;;;;;;;;;;;;;;1481054;40;19951;-52
2021/07/21 06:38:47;;;;;;;;;;;;;;;;;;1476350;40;19990;-46
2021/07/21 06:39:47;;;;;;;;;;;;;;;;;;1472939;40;19940;-46
2021/07/21 06:40:48;;;;;;;;;;;;;;;;;;1480919;40;19967;-56
2021/07/21 06:41:48;;;;;;;;;;;;;;;;;;1480842;40;19940;-44
2021/07/21 06:42:48;;;;;;;;;;;;;;;;;;1480885;40;19940;-46
2021/07/21 06:43:52;;;;;;;;;;;;;;;;;;1480840;40;20418;-51
2021/07/21 06:44:53;;;;;;;;;;;;;;;;;;1481109;40;19957;-43
2021/07/21 06:45:53;;;;;;;;;;;;;;;;;;1477695;40;20042;-52
2021/07/21 06:46:54;;;;;;;;;;;;;;;;;;1481004;40;20434;-47
2021/07/21 06:47:54;;;;;;;;;;;;;;;;;;1481111;40;19947;-45
2021/07/21 06:48:54;;;;;;;;;;;;;;;;;;1476266;40;20532;-46
2021/07/21 06:49:55;;;;;;;;;;;;;;;;;;1476234;40;19933;-47
2021/07/21 06:50:56;;;;;;;;;;;;;;;;;;1481020;40;19964;-46
2021/07/21 06:51:56;;;;;;;;;;;;;;;;;;1481233;40;20041;-49
2021/07/21 06:52:56;;;;;;;;;;;;;;;;;;1480900;40;19935;-49
2021/07/21 06:53:57;;;;;;;;;;;;;;;;;;1481085;40;20484;-50
2021/07/21 06:54:57;;;;;;;;;;;;;;;;;;1479237;40;19937;-53
2021/07/21 06:55:58;;;;;;;;;;;;;;;;;;1479183;40;19932;-47
2021/07/21 06:56:58;;;;;;;;;;;;;;;;;;1480829;40;19928;-50
2021/07/21 06:57:59;;;;;;;;;;;;;;;;;;1481115;40;20166;-48
2021/07/21 06:58:59;;;;;;;;;;;;;;;;;;1481020;40;19928;-47
2021/07/21 07:00:00;;;;;;;;;;;;;;;;;;1481182;40;20338;-49
2021/07/21 07:01:00;;;;;;;;;;;;;;;;;;1479378;40;20557;-52
2021/07/21 07:02:01;;;;;;;;;;;;;;;;;;1483493;40;20276;-46
2021/07/21 07:03:01;;;;;;;;;;;;;;;;;;1485166;40;19935;-46
2021/07/21 07:04:01;;;;;;;;;;;;;;;;;;1485123;40;19938;-45
2021/07/21 07:05:02;;;;;;;;;;;;;;;;;;1485069;40;19939;-54